Time;durP1;ratioP1;P1;durP2;ratioP2;P2;SDS_P1;SDS_P2;PMS_P1;PMS_P2;Temp;Humidity;BMP_temperature;BMP_pressure;BME280_temperature;BME280_humidity;BME280_pressure;Samples;Min_cycle;Max_cycle;Signal;HPM_P1;HPM_P2
2023/12/05 00:15:22;;;;;;;115.78;83.10;;;;;;;22.10;47.56;98883.50;42141175;28;20233;-34
2023/12/05 00:35:27;;;;;;;100.45;72.82;;;;;;;22.03;47.49;98877.81;42096884;28;20248;-35
2023/12/05 00:55:32;;;;;;;93.85;65.68;;;;;;;21.97;47.66;98865.19;42116446;28;20227;-35
2023/12/05 01:15:38;;;;;;;83.75;59.15;;;;;;;21.91;47.44;98858.28;42118936;28;20222;-44
2023/12/05 01:35:45;;;;;;;74.55;52.00;;;;;;;21.86;47.35;98857.81;42074667;28;20218;-35
2023/12/05 01:55:51;;;;;;;63.83;46.22;;;;;;;21.78;47.36;98845.66;42144465;28;20231;-46
2023/12/05 02:16:00;;;;;;;56.47;40.65;;;;;;;21.75;47.86;98835.91;42083220;28;20267;-35
2023/12/05 02:36:14;;;;;;;51.15;37.22;;;;;;;21.71;47.35;98822.94;42184265;28;20229;-33
2023/12/05 02:56:20;;;;;;;46.17;33.90;;;;;;;21.64;47.63;98809.53;42159715;28;20226;-35
2023/12/05 03:16:26;;;;;;;44.05;30.13;;;;;;;21.62;47.45;98811.13;42137000;28;20231;-35
2023/12/05 03:36:40;;;;;;;36.45;27.08;;;;;;;21.65;48.06;98807.53;42021083;28;20279;-42
2023/12/05 03:56:46;;;;;;;35.22;25.85;;;;;;;21.66;47.85;98792.16;42101817;28;20304;-42
2023/12/05 04:16:51;;;;;;;28.67;21.98;;;;;;;21.65;47.97;98784.88;42161668;28;20229;-41
2023/12/05 04:36:56;;;;;;;27.67;20.48;;;;;;;21.69;47.54;98783.69;42180275;28;20217;-45
2023/12/05 04:57:03;;;;;;;24.02;18.27;;;;;;;21.70;47.71;98784.50;42250884;28;20623;-44
2023/12/05 05:17:07;;;;;;;125.85;87.38;;;;;;;21.79;47.83;98779.31;42106816;28;20241;-44
2023/12/05 05:37:12;;;;;;;44.45;32.70;;;;;;;21.82;48.53;98789.00;42067223;28;20230;-36
2023/12/05 05:57:16;;;;;;;63.42;45.88;;;;;;;21.83;49.17;98797.13;42095745;28;20297;-45
2023/12/05 06:17:22;;;;;;;98.00;68.18;;;;;;;21.75;48.94;98801.94;42087001;28;20279;-45
2023/12/05 06:37:27;;;;;;;103.70;73.10;;;;;;;21.69;48.84;98833.81;42101033;28;20222;-34
2023/12/05 06:57:32;;;;;;;109.32;75.22;;;;;;;21.64;49.19;98848.38;42087596;28;20229;-47
2023/12/05 07:17:37;;;;;;;98.97;69.70;;;;;;;21.58;49.07;98872.56;42086821;28;20236;-34
2023/12/05 07:37:41;;;;;;;97.10;68.47;;;;;;;21.54;49.36;98886.72;42081999;28;20227;-38
2023/12/05 07:57:48;;;;;;;91.10;63.75;;;;;;;21.46;49.31;98904.00;42074442;28;20234;-37
2023/12/05 08:17:52;;;;;;;83.05;58.88;;;;;;;21.38;49.39;98926.59;42072823;28;20244;-44
2023/12/05 08:37:55;;;;;;;80.57;57.63;;;;;;;21.31;49.45;98935.00;42094280;28;20269;-34
2023/12/05 08:57:58;;;;;;;70.53;51.55;;;;;;;21.22;49.54;98951.47;42074665;28;20229;-38
2023/12/05 09:18:01;;;;;;;68.88;50.33;;;;;;;21.15;49.74;98971.19;42113689;28;20337;-42
2023/12/05 09:38:05;;;;;;;62.33;44.35;;;;;;;21.08;50.14;98976.72;42092940;28;20218;-45
2023/12/05 09:58:10;;;;;;;58.60;41.85;;;;;;;21.01;50.03;98982.31;42107844;28;20629;-33
2023/12/05 10:18:13;;;;;;;50.95;39.08;;;;;;;20.94;50.06;98985.03;42091817;28;20229;-44
2023/12/05 10:38:18;;;;;;;52.63;37.28;;;;;;;20.89;50.18;98996.72;42100587;28;20310;-44
2023/12/05 10:58:21;;;;;;;47.75;33.90;;;;;;;20.81;50.58;98989.31;42083065;28;20230;-35
2023/12/05 11:18:31;;;;;;;43.03;31.73;;;;;;;20.76;50.67;98995.31;42070559;28;20253;-34
2023/12/05 11:38:34;;;;;;;40.75;30.42;;;;;;;20.69;50.63;98999.66;42076421;28;20225;-48
2023/12/05 11:58:37;;;;;;;35.47;26.75;;;;;;;20.65;50.23;99021.41;42078326;28;20253;-34
2023/12/05 12:18:40;;;;;;;31.65;24.23;;;;;;;20.61;50.54;99031.03;42075455;28;20228;-34
2023/12/05 12:38:43;;;;;;;31.55;23.75;;;;;;;20.57;50.70;99036.63;42085791;28;20644;-48
2023/12/05 12:58:47;;;;;;;30.30;23.02;;;;;;;20.52;50.79;99051.09;42086567;28;20232;-46
2023/12/05 13:18:50;;;;;;;26.33;19.27;;;;;;;20.49;50.62;99051.06;42073649;28;20660;-35
2023/12/05 13:38:55;;;;;;;25.25;19.70;;;;;;;20.43;50.96;99046.91;42103067;28;20245;-44
2023/12/05 13:58:58;;;;;;;23.90;17.35;;;;;;;20.41;50.95;99074.72;42085976;28;20317;-44
2023/12/05 14:19:01;;;;;;;21.88;16.88;;;;;;;20.35;51.31;99088.34;42079733;28;20230;-35
2023/12/05 14:39:04;;;;;;;21.08;16.20;;;;;;;20.29;51.05;99103.97;42086520;28;20240;-33
2023/12/05 14:59:07;;;;;;;18.70;14.13;;;;;;;20.24;51.21;99129.72;42059056;28;20223;-32
2023/12/05 15:19:11;;;;;;;17.75;13.02;;;;;;;20.19;51.28;99155.44;42051159;28;20304;-47
2023/12/05 15:39:15;;;;;;;17.10;12.07;;;;;;;20.14;51.87;99176.31;42063559;28;20241;-41
2023/12/05 15:59:19;;;;;;;29.85;18.08;;;;;;;20.10;51.77;99225.47;42047224;28;20747;-40
2023/12/05 16:19:22;;;;;;;53.28;38.78;;;;;;;20.14;52.55;99257.41;42032155;28;20222;-41
2023/12/05 16:39:26;;;;;;;97.65;65.70;;;;;;;20.33;53.17;99285.69;42253170;28;20642;-41
2023/12/05 16:59:29;;;;;;;89.00;59.63;;;;;;;20.79;53.23;99317.69;42193542;27;20229;-40
2023/12/05 17:19:33;;;;;;;88.22;61.75;;;;;;;21.12;52.74;99347.38;42095965;28;20661;-39
2023/12/05 17:39:35;;;;;;;91.25;62.85;;;;;;;21.32;51.42;99372.44;42068610;27;20222;-41
2023/12/05 17:59:38;;;;;;;138.63;94.63;;;;;;;21.53;51.44;99408.81;42117343;27;20229;-38
2023/12/05 18:19:43;;;;;;;162.32;113.78;;;;;;;21.80;51.31;99423.81;42095509;27;20231;-47
2023/12/05 18:39:47;;;;;;;175.05;123.40;;;;;;;22.63;48.40;99447.34;42071098;28;20675;-56
2023/12/05 18:59:49;;;;;;;204.90;141.10;;;;;;;22.79;48.22;99473.53;41960248;28;20313;-49
2023/12/05 19:19:52;;;;;;;224.40;156.40;;;;;;;22.94;48.82;99497.22;42082240;28;20226;-51
2023/12/05 19:39:55;;;;;;;229.07;160.77;;;;;;;22.97;48.81;99504.97;41978102;27;20273;-49
2023/12/05 19:59:58;;;;;;;281.98;204.75;;;;;;;23.19;49.46;99525.91;42102480;28;20227;-51
2023/12/05 20:20:02;;;;;;;240.38;171.55;;;;;;;23.28;47.86;99551.97;42178382;28;20321;-58
2023/12/05 20:40:06;;;;;;;202.63;144.85;;;;;;;23.20;47.95;99572.97;42138985;28;20224;-48
2023/12/05 21:00:10;;;;;;;175.38;125.07;;;;;;;23.10;46.78;99580.16;42240325;28;20312;-48
2023/12/05 21:20:13;;;;;;;149.52;109.72;;;;;;;23.00;46.43;99605.53;42220233;28;20233;-50
2023/12/05 21:40:17;;;;;;;127.72;94.40;;;;;;;22.86;47.39;99613.81;42190923;28;20542;-46
2023/12/05 22:00:21;;;;;;;133.93;97.28;;;;;;;22.72;46.77;99637.91;42171693;28;20785;-48
2023/12/05 22:20:24;;;;;;;134.00;95.97;;;;;;;22.59;47.36;99642.13;42191646;28;20271;-48
2023/12/05 22:40:27;;;;;;;128.52;91.97;;;;;;;22.42;47.21;99674.69;42194362;28;20250;-57
2023/12/05 23:00:30;;;;;;;114.97;85.43;;;;;;;22.27;47.76;99700.31;42177927;28;20214;-55
2023/12/05 23:20:33;;;;;;;94.20;68.55;;;;;;;22.10;48.18;99713.75;42198272;28;20329;-47
2023/12/05 23:40:36;;;;;;;80.75;58.88;;;;;;;21.94;48.78;99720.69;42168648;28;20253;-47
